Impacts TAF Board
For situational awareness. Not to be used for flight planning purposes.
IDs:

KAEX - Alexandria Intl, LA, US

Issued at 0520 UTC 18 Sep 2021
Updated at 0725 UTC 18 Sep 2021
Potential Impact None Slight Moderate High
Time0706Z 18/08Z 18/09Z 18/10Z 18/11Z 18/12Z 18/13Z 18/14Z 18/15Z 18/16Z 18/17Z 18/18Z 18/19Z 18/20Z>>
Type OBS PRVL
  [TEMP]  
PRVL
  [TEMP]  
PRVL
  [TEMP]  
PRVL
  [TEMP]  
PRVL
  [TEMP]  
PRVL
  [TEMP]  
PRVL PRVL PRVL PRVL PRVL
  [PRB30]  
PRVL
  [PRB30]  
PRVL
  [PRB30]  
VIS 5 >6 >6 >6
  [3]  
>6
  [3]  
>6
  [3]  
>6
  [3]  
>6 >6 >6 >6 >6
  [5]  
>6
  [5]  
>6
  [5]  
CIG 25 --
  [60]  
--
  [60]  
10
  [8]  
10
  [8]  
10
  [8]  
10
  [8]  
24 24 24 24 35
  [45]  
35
  [45]  
35
  [45]  
Cover OVC SKC
  [OVC]  
SKC
  [OVC]  
OVC
  [OVC]  
OVC
  [OVC]  
OVC
  [OVC]  
OVC
  [OVC]  
OVC OVC OVC OVC OVC
  [BKN]  
OVC
  [BKN]  
OVC
  [BKN]  
FltCat MVFR VFR
  [VFR]  
VFR
  [VFR]  
MVFR
  [IFR]  
MVFR
  [IFR]  
MVFR
  [IFR]  
MVFR
  [IFR]  
MVFR MVFR MVFR MVFR VFR
  [MVFR]  
VFR
  [MVFR]  
VFR
  [MVFR]  
WX BR --
  [--]  
--
  [--]  
--
  [BR]  
--
  [BR]  
--
  [BR]  
--
  [BR]  
-- -- -- -- --
  [-TSRA]  
--
  [-TSRA]  
--
  [-TSRA]  
WDir VRB VRB
[VRB]
VRB
[VRB]
VRB
[VRB]
VRB
[VRB]
VRB
[VRB]
VRB
[VRB]
VRB VRB VRB VRB 140
[140]
140
[140]
140
[140]
WSpd 0 6
  [6]  
6
  [6]  
3
  [3]  
3
  [3]  
3
  [3]  
3
  [3]  
0 0 0 0 5
  [5]  
5
  [5]  
5
  [5]  
WGst -- --
  [--]  
--
  [--]  
--
  [--]  
--
  [--]  
--
  [--]  
--
  [--]  
-- -- -- -- --
  [--]  
--
  [--]  
--
  [--]  
Raw TAF
KAEX 180520Z 1806/1906 VRB06KT P6SM SKC
  TEMPO 1806/1810 SCT035 BKN060 OVC080
  FM181000 VRB03KT P6SM BKN010 BKN025 OVC040
  TEMPO 1810/1814 3SM BR OVC008
  FM181400 00000KT P6SM BKN024 OVC030
  FM181800 14005KT P6SM OVC035
  PROB30 1818/1824 5SM -TSRA SCT030 BKN045CB


Raw METAR
KAEX 180706Z 00000KT 5SM BR FEW013 BKN025 OVC032 24/23 A2997 RMK AO2 T02440233
KAEX 180653Z 28003KT 4SM BR FEW025 BKN032 24/23 A2997 RMK AO2 SLP151 T02440233
KAEX 180643Z 00000KT 4SM BR FEW008 SCT029 BKN034 24/23 A2997 RMK AO2 T02440228
KAEX 180608Z 00000KT 5SM BR FEW007 SCT020 BKN026 24/23 A2996 RMK AO2 T02390228
KAEX 180553Z 00000KT 5SM BR FEW009 FEW026 24/23 A2996 RMK AO2 SLP149 60048 T02440233 10283 20239 402940239 53005
KAEX 180541Z 00000KT 5SM BR FEW008 FEW025 24/23 A2996 RMK AO2 T02440233
KAEX 180453Z 00000KT 5SM BR CLR 24/23 A2995 RMK AO2 SLP143 T02390228

METAR Board
Radar Display
Forecast Discussion
For situational awareness. Not to be used for flight planning purposes.